Fuyuanyu965 — 965 — position and weather

sailwx.info

Track history (hours):
 
Tides and Currents Weather Stations Pressure Air Temp Water Temp Dewpoint Dewpoint Depression Visibility Wind Speed Wind Dir Waves Ship Positions

Fuyuanyu965

Last reported at 2017-Nov-05 05:59 UTC. Time now 2017-Nov-19 14:15 UTC.
Position N 31°14' E 121°29'.
Warning: this ship's position is 14 days out of date.

Length 36 m.

Type: Fishing. MMSI: 412110346.

Date/timePositionNaut miles runAvg speedWind from/ knotsBaromVisibWave heightAir tempDewpointWater temp
2017-Nov-05 05:59N 31°14' E 121°29'5 5.8
2017-Nov-05 05:07N 31°18' E 121°34'1 7.0
2017-Nov-05 04:59N 31°18' E 121°33'3 6.2
2017-Nov-05 04:28N 31°21' E 121°31'3 6.1
2017-Nov-05 04:00N 31°24' E 121°31'2 4.2
2017-Nov-05 03:30N 31°25' E 121°30'1 2.3
2017-Nov-05 03:00N 31°26' E 121°28'0 0.2
2017-Nov-05 02:30N 31°26' E 121°28'0 0.0
2017-Nov-05 02:00N 31°26' E 121°28'0 0.0
2017-Nov-05 01:30N 31°26' E 121°28'0 0.0
2017-Nov-05 01:00N 31°26' E 121°28'0 0.0
2017-Nov-05 00:30N 31°26' E 121°28'0 0.1
2017-Nov-04 23:30N 31°26' E 121°28'0 0.0
2017-Nov-04 23:00N 31°26' E 121°28'0 0.0
2017-Nov-04 22:30N 31°26' E 121°28'0 0.0
2017-Nov-04 22:00N 31°26' E 121°28'0 0.0
2017-Nov-04 21:30N 31°26' E 121°28'0 0.0
2017-Nov-04 21:00N 31°26' E 121°28'0 0.0
2017-Nov-04 20:30N 31°26' E 121°28'0 0.0
2017-Nov-04 20:00N 31°26' E 121°28'0 0.0
2017-Nov-04 19:30N 31°26' E 121°28'0 0.0
2017-Nov-04 19:00N 31°26' E 121°28'0 0.0
2017-Nov-04 18:30N 31°26' E 121°28'0 0.0
2017-Nov-04 18:00N 31°26' E 121°28'0 0.0
2017-Nov-04 17:30N 31°26' E 121°28'0 0.0
2017-Nov-04 17:00N 31°26' E 121°28'0 0.0
2017-Nov-04 16:30N 31°26' E 121°28'0 0.0
2017-Nov-04 16:00N 31°26' E 121°28'0 0.0
2017-Nov-04 15:30N 31°26' E 121°28'0 0.0
2017-Nov-04 15:00N 31°26' E 121°28'0 0.1
2017-Nov-04 14:30N 31°26' E 121°28'0 0.0
2017-Nov-04 14:00N 31°26' E 121°28'0 0.0
2017-Nov-04 13:30N 31°26' E 121°28'0 0.0
2017-Nov-04 13:00N 31°26' E 121°28'0 0.0
2017-Nov-04 12:28N 31°26' E 121°28'0 0.0
2017-Nov-04 12:00N 31°26' E 121°28'0 0.0
2017-Nov-04 11:30N 31°26' E 121°28'0 0.0
2017-Nov-04 11:00N 31°26' E 121°28'0 0.0
2017-Nov-04 10:30N 31°26' E 121°28'0 0.1
2017-Nov-04 10:00N 31°26' E 121°28'0 0.0
2017-Nov-04 09:30N 31°26' E 121°28'0 0.0
2017-Nov-04 09:00N 31°26' E 121°28'0 0.0
2017-Nov-04 08:30N 31°26' E 121°28'0 0.0
2017-Nov-04 08:00N 31°26' E 121°28'0 0.0
2017-Nov-04 07:30N 31°26' E 121°28'0 0.0
2017-Nov-04 07:00N 31°26' E 121°28'0 0.0
2017-Nov-04 06:30N 31°26' E 121°28'0 0.0
2017-Nov-04 06:00N 31°26' E 121°28'0 0.0
2017-Nov-04 05:30N 31°26' E 121°28'0 0.0
2017-Nov-04 05:00N 31°26' E 121°28'0 0.0
2017-Nov-04 04:30N 31°26' E 121°28'0 0.0
2017-Nov-04 04:00N 31°26' E 121°28'0 0.0
2017-Nov-04 03:30N 31°26' E 121°28'0 0.0
2017-Nov-04 03:00N 31°26' E 121°28'0 0.0
2017-Nov-04 02:29N 31°26' E 121°28'0 0.0
2017-Nov-04 02:00N 31°26' E 121°28'2 4.5
2017-Nov-04 01:30N 31°25' E 121°31'3 5.9
2017-Nov-04 00:58N 31°21' E 121°31'0 0.2
2017-Nov-04 00:30N 31°21' E 121°31'3 5.1
2017-Nov-03 23:56N 31°20' E 121°33'  
Track history (hours):
 
Tides and Currents Weather Stations Pressure Air Temp Water Temp Dewpoint Dewpoint Depression Visibility Wind Speed Wind Dir Waves Ship Positions

Fuyuanyu965

Last reported at 2017-Nov-05 05:59 UTC. Time now 2017-Nov-19 14:15 UTC.
Position N 31°14' E 121°29'.
Warning: this ship's position is 14 days out of date.

Length 36 m.

Type: Fishing. MMSI: 412110346.

Date/timePositionNaut miles runAvg speedWind from/ knotsBaromVisibWave heightAir tempDewpointWater temp
2017-Nov-05 05:59N 31°14' E 121°29'5 5.8
2017-Nov-05 05:07N 31°18' E 121°34'1 7.0
2017-Nov-05 04:59N 31°18' E 121°33'3 6.2
2017-Nov-05 04:28N 31°21' E 121°31'3 6.1
2017-Nov-05 04:00N 31°24' E 121°31'2 4.2
2017-Nov-05 03:30N 31°25' E 121°30'1 2.3
2017-Nov-05 03:00N 31°26' E 121°28'0 0.2
2017-Nov-05 02:30N 31°26' E 121°28'0 0.0
2017-Nov-05 02:00N 31°26' E 121°28'0 0.0
2017-Nov-05 01:30N 31°26' E 121°28'0 0.0
2017-Nov-05 01:00N 31°26' E 121°28'0 0.0
2017-Nov-05 00:30N 31°26' E 121°28'0 0.1
2017-Nov-04 23:30N 31°26' E 121°28'0 0.0
2017-Nov-04 23:00N 31°26' E 121°28'0 0.0
2017-Nov-04 22:30N 31°26' E 121°28'0 0.0
2017-Nov-04 22:00N 31°26' E 121°28'0 0.0
2017-Nov-04 21:30N 31°26' E 121°28'0 0.0
2017-Nov-04 21:00N 31°26' E 121°28'0 0.0
2017-Nov-04 20:30N 31°26' E 121°28'0 0.0
2017-Nov-04 20:00N 31°26' E 121°28'0 0.0
2017-Nov-04 19:30N 31°26' E 121°28'0 0.0
2017-Nov-04 19:00N 31°26' E 121°28'0 0.0
2017-Nov-04 18:30N 31°26' E 121°28'0 0.0
2017-Nov-04 18:00N 31°26' E 121°28'0 0.0
2017-Nov-04 17:30N 31°26' E 121°28'0 0.0
2017-Nov-04 17:00N 31°26' E 121°28'0 0.0
2017-Nov-04 16:30N 31°26' E 121°28'0 0.0
2017-Nov-04 16:00N 31°26' E 121°28'0 0.0
2017-Nov-04 15:30N 31°26' E 121°28'0 0.0
2017-Nov-04 15:00N 31°26' E 121°28'0 0.1
2017-Nov-04 14:30N 31°26' E 121°28'0 0.0
2017-Nov-04 14:00N 31°26' E 121°28'0 0.0
2017-Nov-04 13:30N 31°26' E 121°28'0 0.0
2017-Nov-04 13:00N 31°26' E 121°28'0 0.0
2017-Nov-04 12:28N 31°26' E 121°28'0 0.0
2017-Nov-04 12:00N 31°26' E 121°28'0 0.0
2017-Nov-04 11:30N 31°26' E 121°28'0 0.0
2017-Nov-04 11:00N 31°26' E 121°28'0 0.0
2017-Nov-04 10:30N 31°26' E 121°28'0 0.1
2017-Nov-04 10:00N 31°26' E 121°28'0 0.0
2017-Nov-04 09:30N 31°26' E 121°28'0 0.0
2017-Nov-04 09:00N 31°26' E 121°28'0 0.0
2017-Nov-04 08:30N 31°26' E 121°28'0 0.0
2017-Nov-04 08:00N 31°26' E 121°28'0 0.0
2017-Nov-04 07:30N 31°26' E 121°28'0 0.0
2017-Nov-04 07:00N 31°26' E 121°28'0 0.0
2017-Nov-04 06:30N 31°26' E 121°28'0 0.0
2017-Nov-04 06:00N 31°26' E 121°28'0 0.0
2017-Nov-04 05:30N 31°26' E 121°28'0 0.0
2017-Nov-04 05:00N 31°26' E 121°28'0 0.0
2017-Nov-04 04:30N 31°26' E 121°28'0 0.0
2017-Nov-04 04:00N 31°26' E 121°28'0 0.0
2017-Nov-04 03:30N 31°26' E 121°28'0 0.0
2017-Nov-04 03:00N 31°26' E 121°28'0 0.0
2017-Nov-04 02:29N 31°26' E 121°28'0 0.0
2017-Nov-04 02:00N 31°26' E 121°28'2 4.5
2017-Nov-04 01:30N 31°25' E 121°31'3 5.9
2017-Nov-04 00:58N 31°21' E 121°31'0 0.2
2017-Nov-04 00:30N 31°21' E 121°31'3 5.1
2017-Nov-03 23:56N 31°20' E 121°33'  

Dump ship's entire track history